createdAt,value
2023-03-24T00:01:56.269Z,101165.03
2023-03-24T00:04:25.147Z,101168.75
2023-03-24T00:06:52.605Z,101166.06
2023-03-24T00:09:19.710Z,101165.41
2023-03-24T00:11:46.501Z,101165.53
2023-03-24T00:14:13.348Z,101169.88
2023-03-24T00:16:42.694Z,101162.47
2023-03-24T00:19:11.146Z,101163.50
2023-03-24T00:21:38.016Z,101169.47
2023-03-24T00:24:07.781Z,101171.34
2023-03-24T00:26:37.637Z,101175.84
2023-03-24T00:29:06.997Z,101168.00
2023-03-24T00:31:34.397Z,101163.50
2023-03-24T00:34:03.006Z,101171.19
2023-03-24T00:36:29.919Z,101162.97
2023-03-24T00:38:57.923Z,101173.50
2023-03-24T00:41:27.191Z,101168.72
2023-03-24T00:43:56.797Z,101176.34
2023-03-24T00:46:30.138Z,101170.00
2023-03-24T00:49:03.807Z,101163.13
2023-03-24T00:51:33.785Z,101158.22
2023-03-24T00:54:02.100Z,101157.75
2023-03-24T00:56:32.595Z,101156.88
2023-03-24T00:59:02.198Z,101156.69
2023-03-24T01:01:33.151Z,101167.00
2023-03-24T01:04:00.528Z,101174.59
2023-03-24T01:06:27.365Z,101164.63
2023-03-24T01:08:55.053Z,101165.47
2023-03-24T01:11:24.495Z,101159.94
2023-03-24T01:13:53.447Z,101166.09
2023-03-24T01:16:22.193Z,101173.75
2023-03-24T01:18:49.516Z,101174.72
2023-03-24T01:21:16.635Z,101180.25
2023-03-24T01:23:43.547Z,101181.72
2023-03-24T01:26:11.111Z,101171.97
2023-03-24T01:28:41.136Z,101156.31
2023-03-24T01:31:10.050Z,101147.19
2023-03-24T01:33:38.338Z,101149.88
2023-03-24T01:36:07.241Z,101149.50
2023-03-24T01:38:35.449Z,101153.56
2023-03-24T01:41:03.416Z,101157.31
2023-03-24T01:43:33.020Z,101147.56
2023-03-24T01:46:02.571Z,101152.28
2023-03-24T01:48:59.847Z,101153.28
2023-03-24T01:51:34.803Z,101149.41
2023-03-24T01:54:07.643Z,101148.03
2023-03-24T01:56:38.661Z,101145.47
2023-03-24T01:59:10.866Z,101139.94
2023-03-24T02:01:44.808Z,101127.63
2023-03-24T02:04:44.354Z,101114.94
2023-03-24T02:07:28.303Z,101115.94
2023-03-24T02:09:55.425Z,101125.44
2023-03-24T02:12:22.367Z,101126.44
2023-03-24T02:14:52.100Z,101125.44
2023-03-24T02:17:45.074Z,101125.44
2023-03-24T02:20:30.423Z,101132.16
2023-03-24T02:23:18.737Z,101122.06
2023-03-24T02:26:20.788Z,101109.78
2023-03-24T02:29:03.965Z,101113.25
2023-03-24T02:31:46.654Z,101105.81
2023-03-24T02:34:22.464Z,101101.94
2023-03-24T02:37:05.081Z,101102.09
2023-03-24T02:39:51.021Z,101105.25
2023-03-24T02:42:32.874Z,101102.56
2023-03-24T02:45:21.410Z,101100.72
2023-03-24T02:48:08.401Z,101098.22
2023-03-24T02:50:45.791Z,101098.44
2023-03-24T02:53:22.296Z,101100.88
2023-03-24T02:56:17.163Z,101091.38
2023-03-24T02:58:53.927Z,101104.56
2023-03-24T03:01:33.509Z,101099.59
2023-03-24T03:04:35.437Z,101103.66
2023-03-24T03:07:09.907Z,101102.00
2023-03-24T03:09:41.643Z,101101.34
2023-03-24T03:12:12.569Z,101095.56
2023-03-24T03:14:45.953Z,101086.50
2023-03-24T03:17:18.813Z,101092.25
2023-03-24T03:19:52.707Z,101087.28
2023-03-24T03:22:24.906Z,101086.28
2023-03-24T03:24:54.425Z,101085.00
2023-03-24T03:27:29.456Z,101082.13
2023-03-24T03:30:02.944Z,101080.47
2023-03-24T03:32:39.163Z,101074.22
2023-03-24T03:35:16.971Z,101077.63
2023-03-24T03:38:14.122Z,101068.22
2023-03-24T03:41:01.896Z,101071.28
2023-03-24T03:43:34.937Z,101063.56
2023-03-24T03:46:06.533Z,101076.31
2023-03-24T03:48:37.031Z,101070.13
2023-03-24T03:51:13.077Z,101062.00
2023-03-24T03:54:10.548Z,101066.16
2023-03-24T03:56:38.624Z,101069.03
2023-03-24T03:59:34.320Z,101064.97
2023-03-24T04:02:28.329Z,101070.78
2023-03-24T04:05:26.217Z,101075.13
2023-03-24T04:08:23.299Z,101072.59
2023-03-24T04:11:31.232Z,101068.84
2023-03-24T04:14:59.405Z,101076.22
2023-03-24T04:17:48.380Z,101072.56
2023-03-24T04:20:48.230Z,101070.88
2023-03-24T04:23:26.664Z,101069.31
2023-03-24T04:26:27.930Z,101064.63
2023-03-24T04:29:09.200Z,101061.56
2023-03-24T04:31:40.470Z,101062.56
2023-03-24T04:34:22.075Z,101070.59
2023-03-24T04:37:04.319Z,101075.66
2023-03-24T04:40:06.164Z,101076.13
2023-03-24T04:42:37.874Z,101071.78
2023-03-24T04:45:06.941Z,101066.91
2023-03-24T04:47:53.804Z,101063.38
2023-03-24T04:51:01.216Z,101074.72
2023-03-24T04:53:37.417Z,101071.41
2023-03-24T04:56:19.544Z,101071.03
2023-03-24T04:59:09.808Z,101062.69
2023-03-24T05:01:38.269Z,101055.03
2023-03-24T05:04:28.422Z,101050.81
2023-03-24T05:06:57.921Z,101043.50
2023-03-24T05:09:27.209Z,101043.88
2023-03-24T05:11:54.020Z,101053.34
2023-03-24T05:14:22.798Z,101045.97
2023-03-24T05:16:49.882Z,101051.19
2023-03-24T05:19:19.255Z,101059.31
2023-03-24T05:21:47.340Z,101059.00
2023-03-24T05:24:14.219Z,101058.22
2023-03-24T05:26:41.190Z,101061.28
2023-03-24T05:29:19.490Z,101069.31
2023-03-24T05:31:46.609Z,101071.97
2023-03-24T05:34:18.325Z,101071.78
2023-03-24T05:36:56.966Z,101084.41
2023-03-24T05:39:24.014Z,101091.59
2023-03-24T05:42:06.094Z,101091.25
2023-03-24T05:44:33.028Z,101096.94
2023-03-24T05:47:06.113Z,101097.78
2023-03-24T05:49:33.062Z,101097.88
2023-03-24T05:52:01.310Z,101098.88
2023-03-24T05:54:28.412Z,101104.19
2023-03-24T05:57:04.207Z,101085.00
2023-03-24T05:59:34.470Z,101086.91
2023-03-24T06:02:30.429Z,101092.63
2023-03-24T06:05:03.978Z,101095.00
2023-03-24T06:07:31.006Z,101098.06
2023-03-24T06:10:02.881Z,101091.75
2023-03-24T06:12:37.096Z,101092.72
2023-03-24T06:15:05.503Z,101093.72
2023-03-24T06:17:34.188Z,101092.59
2023-03-24T06:20:15.084Z,101090.69
2023-03-24T06:23:07.763Z,101105.75
2023-03-24T06:26:11.755Z,101112.44
2023-03-24T06:29:08.193Z,101110.72
2023-03-24T06:31:39.301Z,101112.59
2023-03-24T06:34:06.816Z,101121.56
2023-03-24T06:36:36.625Z,101131.72
2023-03-24T06:39:07.761Z,101128.84
2023-03-24T06:41:35.475Z,101126.16
2023-03-24T06:44:03.723Z,101133.84
2023-03-24T06:46:30.846Z,101139.38
2023-03-24T06:48:59.435Z,101129.22
2023-03-24T06:51:32.306Z,101130.00
2023-03-24T06:53:59.920Z,101133.59
2023-03-24T06:56:31.551Z,101135.53
2023-03-24T06:59:01.342Z,101134.50
2023-03-24T07:01:36.148Z,101121.00
2023-03-24T07:04:27.611Z,101135.09
2023-03-24T07:07:12.444Z,101135.28
2023-03-24T07:09:53.411Z,101124.47
2023-03-24T07:12:20.328Z,101119.28
2023-03-24T07:14:49.300Z,101119.09
2023-03-24T07:17:16.582Z,101130.75
2023-03-24T07:20:10.194Z,101132.28
2023-03-24T07:22:59.248Z,101132.59
2023-03-24T07:25:26.659Z,101132.13
2023-03-24T07:28:13.083Z,101132.59
2023-03-24T07:30:41.105Z,101125.00
2023-03-24T07:33:13.657Z,101133.53
2023-03-24T07:35:46.030Z,101130.91
2023-03-24T07:38:13.464Z,101132.00
2023-03-24T07:40:40.378Z,101133.03
2023-03-24T07:43:07.232Z,101127.19
2023-03-24T07:45:54.248Z,101127.63
2023-03-24T07:48:21.207Z,101132.84
2023-03-24T07:50:48.855Z,101135.53
2023-03-24T07:53:36.126Z,101132.03
2023-03-24T07:56:03.857Z,101142.56
2023-03-24T07:58:31.139Z,101135.34
2023-03-24T08:01:15.351Z,101127.50
2023-03-24T08:03:45.533Z,101134.13
2023-03-24T08:06:25.373Z,101139.47
2023-03-24T08:08:56.540Z,101140.91
2023-03-24T08:11:28.261Z,101139.47
2023-03-24T08:13:55.030Z,101142.41
2023-03-24T08:16:23.354Z,101133.06
2023-03-24T08:18:51.140Z,101133.88
2023-03-24T08:21:18.122Z,101143.16
2023-03-24T08:23:45.102Z,101145.63
2023-03-24T08:26:12.075Z,101135.44
2023-03-24T08:28:39.492Z,101131.69
2023-03-24T08:31:06.285Z,101131.22
2023-03-24T08:33:33.917Z,101130.38
2023-03-24T08:36:01.188Z,101140.06
2023-03-24T08:38:31.631Z,101138.81
2023-03-24T08:41:06.788Z,101125.53
2023-03-24T08:43:35.985Z,101132.75
2023-03-24T08:46:03.473Z,101137.09
2023-03-24T08:48:30.924Z,101147.19
2023-03-24T08:50:57.801Z,101145.72
2023-03-24T08:53:24.549Z,101142.78
2023-03-24T08:55:51.502Z,101139.44
2023-03-24T08:58:22.035Z,101142.34
2023-03-24T09:00:49.618Z,101148.91
2023-03-24T09:03:22.112Z,101143.06
2023-03-24T09:05:49.747Z,101149.03
2023-03-24T09:08:18.451Z,101148.16
2023-03-24T09:10:47.131Z,101137.09
2023-03-24T09:13:14.831Z,101140.34
2023-03-24T09:15:59.045Z,101143.19
2023-03-24T09:18:25.811Z,101149.63
2023-03-24T09:20:52.804Z,101157.44
2023-03-24T09:23:20.980Z,101147.28
2023-03-24T09:25:52.464Z,101150.41
2023-03-24T09:28:20.414Z,101152.50
2023-03-24T09:30:49.980Z,101158.97
2023-03-24T09:33:17.254Z,101150.56
2023-03-24T09:35:44.175Z,101144.13
2023-03-24T09:38:12.335Z,101140.59
2023-03-24T09:40:39.971Z,101149.63
2023-03-24T09:43:12.397Z,101143.16
2023-03-24T09:46:10.005Z,101145.75
2023-03-24T09:48:46.803Z,101136.03
2023-03-24T09:51:18.203Z,101134.53
2023-03-24T09:54:05.777Z,101139.31
2023-03-24T09:56:35.433Z,101157.63
2023-03-24T09:59:18.006Z,101156.69
2023-03-24T10:01:45.577Z,101156.59
2023-03-24T10:04:16.984Z,101155.56
2023-03-24T10:06:44.616Z,101162.81
2023-03-24T10:09:29.568Z,101168.22
2023-03-24T10:12:34.078Z,101170.91
2023-03-24T10:15:24.317Z,101161.47
2023-03-24T10:18:08.573Z,101160.81
2023-03-24T10:20:35.401Z,101167.22
2023-03-24T10:23:39.337Z,101165.16
2023-03-24T10:26:54.265Z,101163.16
2023-03-24T10:29:30.058Z,101161.31
2023-03-24T10:32:05.074Z,101162.84
2023-03-24T10:34:33.846Z,101152.09
2023-03-24T10:37:03.299Z,101159.34
2023-03-24T10:39:42.125Z,101136.47
2023-03-24T10:42:18.781Z,101134.41
2023-03-24T10:44:48.468Z,101129.88
2023-03-24T10:47:21.481Z,101127.81
2023-03-24T10:49:57.821Z,101122.25
2023-03-24T10:52:25.136Z,101119.88
2023-03-24T10:55:03.543Z,101126.84
2023-03-24T10:57:30.863Z,101118.81
2023-03-24T11:00:29.521Z,101114.75
2023-03-24T11:02:58.027Z,101124.03
2023-03-24T11:05:30.840Z,101121.31
2023-03-24T11:08:17.849Z,101122.25
2023-03-24T11:10:44.865Z,101118.75
2023-03-24T11:13:32.407Z,101123.13
2023-03-24T11:16:17.552Z,101124.88
2023-03-24T11:19:21.011Z,101123.81
2023-03-24T11:21:51.702Z,101124.56
2023-03-24T11:24:20.760Z,101116.19
2023-03-24T11:27:02.430Z,101124.88
2023-03-24T11:29:34.951Z,101123.06
2023-03-24T11:32:05.536Z,101122.31
2023-03-24T11:34:38.656Z,101117.81
2023-03-24T11:37:12.170Z,101122.91
2023-03-24T11:39:39.205Z,101116.75
2023-03-24T11:42:18.441Z,101127.28
2023-03-24T11:44:53.588Z,101129.97
2023-03-24T11:47:30.917Z,101133.09
2023-03-24T11:50:04.068Z,101126.13
2023-03-24T11:52:55.666Z,101130.03
2023-03-24T11:55:48.447Z,101130.94
2023-03-24T11:58:28.056Z,101143.78
2023-03-24T12:01:04.331Z,101133.41
2023-03-24T12:03:49.633Z,101134.31
2023-03-24T12:06:48.178Z,101123.88
2023-03-24T12:09:48.860Z,101134.31
2023-03-24T12:12:36.294Z,101135.94
2023-03-24T12:15:27.973Z,101132.34
2023-03-24T12:18:18.527Z,101127.53
2023-03-24T12:21:14.097Z,101125.63
2023-03-24T12:23:55.156Z,101118.88
2023-03-24T12:26:28.339Z,101115.84
2023-03-24T12:29:26.616Z,101116.25
2023-03-24T12:32:20.641Z,101103.94
2023-03-24T12:35:12.507Z,101106.16
2023-03-24T12:38:07.749Z,101108.31
2023-03-24T12:40:49.668Z,101103.44
2023-03-24T12:43:34.651Z,101100.47
2023-03-24T12:46:40.677Z,101099.72
2023-03-24T12:49:32.013Z,101105.81
2023-03-24T12:51:58.743Z,101098.31
2023-03-24T12:55:02.946Z,101095.78
2023-03-24T12:57:34.409Z,101086.69
2023-03-24T13:00:08.845Z,101086.34
2023-03-24T13:02:43.091Z,101075.25
2023-03-24T13:05:18.069Z,101065.91
2023-03-24T13:07:47.730Z,101086.38
2023-03-24T13:10:25.752Z,101082.09
2023-03-24T13:13:00.781Z,101073.88
2023-03-24T13:15:43.378Z,101063.41
2023-03-24T13:18:10.191Z,101061.56
2023-03-24T13:21:15.212Z,101055.41
2023-03-24T13:23:47.905Z,101064.25
2023-03-24T13:26:26.870Z,101061.03
2023-03-24T13:29:04.814Z,101062.72
2023-03-24T13:32:00.483Z,101064.63
2023-03-24T13:34:33.510Z,101077.41
2023-03-24T13:37:04.888Z,101078.53
2023-03-24T13:39:34.426Z,101090.84
2023-03-24T13:42:02.953Z,101094.94
2023-03-24T13:44:49.975Z,101088.44
2023-03-24T13:47:18.544Z,101094.97
2023-03-24T13:50:06.831Z,101080.06
2023-03-24T13:52:45.058Z,101078.97
2023-03-24T13:55:35.041Z,101084.50
2023-03-24T13:58:14.626Z,101091.56
2023-03-24T14:01:06.438Z,101094.97
2023-03-24T14:03:39.810Z,101097.78
2023-03-24T14:06:09.338Z,101094.28
2023-03-24T14:08:52.012Z,101082.66
2023-03-24T14:11:34.316Z,101086.16
2023-03-24T14:14:18.554Z,101101.97
2023-03-24T14:17:07.217Z,101111.03
2023-03-24T14:19:44.244Z,101128.91
2023-03-24T14:22:14.040Z,101157.44
2023-03-24T14:24:47.109Z,101163.88
2023-03-24T14:27:51.030Z,101163.88
2023-03-24T14:30:22.672Z,101186.69
2023-03-24T14:32:56.387Z,101180.06
2023-03-24T14:35:37.375Z,101168.34
2023-03-24T14:38:19.882Z,101198.66
2023-03-24T14:40:49.635Z,101213.16
2023-03-24T14:43:29.226Z,101208.94
2023-03-24T14:45:59.962Z,101204.53
2023-03-24T14:48:38.088Z,101206.44
2023-03-24T14:51:36.514Z,101195.78
2023-03-24T14:54:16.560Z,101195.66
2023-03-24T14:56:47.554Z,101208.56
2023-03-24T14:59:39.400Z,101192.06
2023-03-24T15:02:37.572Z,101199.91
2023-03-24T15:05:31.228Z,101192.03
2023-03-24T15:08:20.813Z,101196.94
2023-03-24T15:10:53.107Z,101208.25
2023-03-24T15:13:28.225Z,101212.94
2023-03-24T15:15:55.621Z,101195.38
2023-03-24T15:18:22.845Z,101216.34
2023-03-24T15:20:51.243Z,101215.19
2023-03-24T15:23:21.524Z,101212.63
2023-03-24T15:25:48.360Z,101206.84
2023-03-24T15:28:29.913Z,101215.19
2023-03-24T15:31:01.308Z,101219.75
2023-03-24T15:33:31.200Z,101227.75
2023-03-24T15:35:59.911Z,101222.38
2023-03-24T15:38:32.773Z,101241.22
2023-03-24T15:41:13.873Z,101232.97
2023-03-24T15:43:50.732Z,101238.34
2023-03-24T15:46:28.002Z,101243.28
2023-03-24T15:48:57.929Z,101247.63
2023-03-24T15:51:50.702Z,101245.75
2023-03-24T15:54:22.119Z,101237.28
2023-03-24T15:57:19.082Z,101251.75
2023-03-24T15:59:55.819Z,101258.31
2023-03-24T16:02:56.348Z,101266.41
2023-03-24T16:05:28.815Z,101272.66
2023-03-24T16:08:03.578Z,101270.97
2023-03-24T16:10:45.177Z,101270.00
2023-03-24T16:13:19.468Z,101273.09
2023-03-24T16:16:07.202Z,101263.81
2023-03-24T16:18:38.778Z,101271.06
2023-03-24T16:21:23.298Z,101260.28
2023-03-24T16:23:52.419Z,101259.69
2023-03-24T16:26:24.313Z,101256.03
2023-03-24T16:28:52.601Z,101255.03
2023-03-24T16:31:26.940Z,101243.88
2023-03-24T16:33:57.268Z,101244.28
2023-03-24T16:36:28.297Z,101263.78
2023-03-24T16:38:57.258Z,101264.00
2023-03-24T16:41:24.711Z,101263.81
2023-03-24T16:43:53.313Z,101277.63
2023-03-24T16:46:26.404Z,101281.19
2023-03-24T16:48:53.915Z,101272.09
2023-03-24T16:51:20.716Z,101265.06
2023-03-24T16:53:48.092Z,101273.13
2023-03-24T16:56:17.892Z,101282.03
2023-03-24T16:58:47.969Z,101285.53
2023-03-24T17:01:46.049Z,101283.06
2023-03-24T17:04:17.224Z,101286.97
2023-03-24T17:06:49.105Z,101298.56
2023-03-24T17:09:16.201Z,101300.41
2023-03-24T17:11:48.087Z,101309.50
2023-03-24T17:14:15.495Z,101313.22
2023-03-24T17:16:49.139Z,101311.38
2023-03-24T17:19:18.951Z,101313.63
2023-03-24T17:21:49.361Z,101312.59
2023-03-24T17:24:16.757Z,101323.09
2023-03-24T17:26:43.844Z,101339.81
2023-03-24T17:29:12.751Z,101334.00
2023-03-24T17:31:42.974Z,101338.19
2023-03-24T17:36:44.302Z,101340.59
2023-03-24T17:39:16.431Z,101350.25
2023-03-24T17:41:43.294Z,101357.69
2023-03-24T17:44:10.376Z,101361.75
2023-03-24T17:46:37.291Z,101363.16
2023-03-24T17:49:04.548Z,101367.75
2023-03-24T17:51:31.317Z,101376.03
2023-03-24T17:53:58.401Z,101387.31
2023-03-24T17:56:25.320Z,101380.13
2023-03-24T17:58:54.821Z,101395.78
2023-03-24T18:01:23.783Z,101401.69
2023-03-24T18:03:50.822Z,101412.44
2023-03-24T18:06:17.629Z,101420.47
2023-03-24T18:08:44.847Z,101425.22
2023-03-24T18:11:14.502Z,101424.28
2023-03-24T18:13:42.874Z,101432.78
2023-03-24T18:16:20.563Z,101438.53
2023-03-24T18:18:49.658Z,101445.34
2023-03-24T18:21:16.682Z,101442.44
2023-03-24T18:23:43.958Z,101437.88
2023-03-24T18:26:11.271Z,101446.38
2023-03-24T18:28:39.154Z,101457.34
2023-03-24T18:31:15.777Z,101465.97
2023-03-24T18:33:46.029Z,101457.38
2023-03-24T18:36:21.831Z,101469.56
2023-03-24T18:38:49.262Z,101470.94
2023-03-24T18:41:18.420Z,101482.13
2023-03-24T18:43:47.871Z,101481.13
2023-03-24T18:46:15.524Z,101481.56
2023-03-24T18:48:43.450Z,101484.94
2023-03-24T18:51:14.252Z,101484.53
2023-03-24T18:53:41.417Z,101485.81
2023-03-24T18:56:08.756Z,101484.53
2023-03-24T18:58:38.188Z,101487.47
2023-03-24T19:01:11.233Z,101495.47
2023-03-24T19:03:39.378Z,101494.91
2023-03-24T19:06:08.667Z,101498.09
2023-03-24T19:08:37.954Z,101503.91
2023-03-24T19:11:05.501Z,101502.16
2023-03-24T19:13:33.053Z,101505.72
2023-03-24T19:16:00.257Z,101515.41
2023-03-24T19:18:27.376Z,101533.59
2023-03-24T19:20:56.132Z,101529.25
2023-03-24T19:23:26.957Z,101531.34
2023-03-24T19:25:55.261Z,101537.38
2023-03-24T19:28:29.247Z,101542.53
2023-03-24T19:30:57.620Z,101541.50
2023-03-24T19:33:24.398Z,101541.31
2023-03-24T19:35:52.197Z,101545.72
2023-03-24T19:38:25.141Z,101556.91
2023-03-24T19:40:53.961Z,101548.09
2023-03-24T19:43:22.029Z,101545.22
2023-03-24T19:45:52.034Z,101553.25
2023-03-24T19:48:19.130Z,101550.56
2023-03-24T19:50:46.403Z,101554.94
2023-03-24T19:53:13.431Z,101553.91
2023-03-24T19:55:40.294Z,101556.75
2023-03-24T19:58:07.273Z,101555.31
2023-03-24T20:00:34.857Z,101558.00
2023-03-24T20:03:02.201Z,101556.34
2023-03-24T20:05:29.135Z,101559.63
2023-03-24T20:07:58.486Z,101581.69
2023-03-24T20:10:27.152Z,101589.53
2023-03-24T20:12:54.035Z,101595.72
2023-03-24T20:15:21.908Z,101601.03
2023-03-24T20:17:49.163Z,101592.72
2023-03-24T20:20:19.163Z,101591.31
2023-03-24T20:22:46.236Z,101600.38
2023-03-24T20:25:15.816Z,101622.22
2023-03-24T20:27:48.126Z,101623.81
2023-03-24T20:30:18.876Z,101615.50
2023-03-24T20:32:46.260Z,101618.72
2023-03-24T20:35:13.327Z,101621.06
2023-03-24T20:37:42.858Z,101629.72
2023-03-24T20:40:10.382Z,101631.19
2023-03-24T20:42:41.504Z,101639.50
2023-03-24T20:45:09.045Z,101634.81
2023-03-24T20:47:37.484Z,101645.69
2023-03-24T20:50:06.181Z,101645.97
2023-03-24T20:52:33.081Z,101638.78
2023-03-24T20:55:04.049Z,101638.78
2023-03-24T20:57:31.502Z,101646.81
2023-03-24T21:00:00.828Z,101651.13
2023-03-24T21:02:38.345Z,101646.97
2023-03-24T21:05:11.138Z,101649.66
2023-03-24T21:07:44.036Z,101655.22
2023-03-24T21:10:11.688Z,101651.91
2023-03-24T21:12:52.869Z,101643.97
2023-03-24T21:15:25.445Z,101650.03
2023-03-24T21:17:58.712Z,101644.38
2023-03-24T21:20:32.994Z,101654.69
2023-03-24T21:23:07.877Z,101650.00
2023-03-24T21:25:35.661Z,101648.72
2023-03-24T21:28:03.404Z,101652.03
2023-03-24T21:30:31.774Z,101660.88
2023-03-24T21:33:02.461Z,101664.41
2023-03-24T21:35:31.678Z,101668.47
2023-03-24T21:38:02.966Z,101667.75
2023-03-24T21:40:37.758Z,101676.63
2023-03-24T21:43:06.815Z,101683.47
2023-03-24T21:45:37.982Z,101669.50
2023-03-24T21:48:08.569Z,101679.13
2023-03-24T21:50:39.039Z,101690.94
2023-03-24T21:53:15.389Z,101691.69
2023-03-24T21:55:51.400Z,101696.13
2023-03-24T21:58:19.369Z,101682.44
2023-03-24T22:00:48.084Z,101695.28
2023-03-24T22:03:15.761Z,101694.09
2023-03-24T22:05:43.305Z,101703.22
2023-03-24T22:08:14.740Z,101700.00
2023-03-24T22:10:46.011Z,101712.19
2023-03-24T22:13:17.447Z,101722.94
2023-03-24T22:15:44.363Z,101728.91
2023-03-24T22:18:14.080Z,101728.09
2023-03-24T22:20:43.610Z,101718.38
2023-03-24T22:23:10.774Z,101714.13
2023-03-24T22:25:37.707Z,101710.25
2023-03-24T22:28:05.879Z,101715.44
2023-03-24T22:30:32.648Z,101714.41
2023-03-24T22:32:59.616Z,101712.56
2023-03-24T22:35:29.934Z,101703.50
2023-03-24T22:37:56.894Z,101712.38
2023-03-24T22:40:26.095Z,101709.59
2023-03-24T22:42:55.466Z,101706.56
2023-03-24T22:45:24.681Z,101704.53
2023-03-24T22:48:00.397Z,101693.81
2023-03-24T22:50:35.092Z,101706.19
2023-03-24T22:53:08.457Z,101710.53
2023-03-24T22:55:39.412Z,101704.16
2023-03-24T22:58:11.361Z,101704.53
2023-03-24T23:00:49.558Z,101710.25
2023-03-24T23:03:17.024Z,101714.63
2023-03-24T23:05:50.073Z,101718.31
2023-03-24T23:08:17.071Z,101706.91
2023-03-24T23:10:50.607Z,101709.97
2023-03-24T23:13:18.607Z,101708.16
2023-03-24T23:15:54.408Z,101719.03
2023-03-24T23:18:21.562Z,101714.22
2023-03-24T23:20:50.488Z,101714.22
2023-03-24T23:23:25.827Z,101708.03
2023-03-24T23:25:52.670Z,101715.41
2023-03-24T23:28:25.002Z,101718.94
2023-03-24T23:30:54.633Z,101720.34
2023-03-24T23:33:31.522Z,101719.47
2023-03-24T23:35:59.151Z,101717.19
2023-03-24T23:38:31.996Z,101715.50
2023-03-24T23:40:58.853Z,101708.22
2023-03-24T23:43:25.972Z,101711.25
2023-03-24T23:45:58.490Z,101707.91
2023-03-24T23:48:25.573Z,101719.63
2023-03-24T23:51:03.789Z,101711.53
2023-03-24T23:53:31.260Z,101711.53
2023-03-24T23:56:07.001Z,101713.25
2023-03-24T23:58:39.458Z,101708.38
